sensor_id;sensor_type;location;lat;lon;timestamp;P1;durP1;ratioP1;P2;durP2;ratioP2
71963;SDS011;59834;52.124;5.422;2023-02-28T00:00:35;3.58;;;0.90;;
71963;SDS011;59834;52.124;5.422;2023-02-28T00:03:03;2.88;;;0.98;;
71963;SDS011;59834;52.124;5.422;2023-02-28T00:05:30;3.78;;;0.68;;
71963;SDS011;59834;52.124;5.422;2023-02-28T00:07:57;2.58;;;0.73;;
71963;SDS011;59834;52.124;5.422;2023-02-28T00:10:32;3.53;;;1.20;;
71963;SDS011;59834;52.124;5.422;2023-02-28T00:13:00;2.85;;;0.60;;
71963;SDS011;59834;52.124;5.422;2023-02-28T00:15:29;4.60;;;0.82;;
71963;SDS011;59834;52.124;5.422;2023-02-28T00:17:55;5.10;;;0.75;;
71963;SDS011;59834;52.124;5.422;2023-02-28T00:20:22;5.47;;;0.88;;
71963;SDS011;59834;52.124;5.422;2023-02-28T00:22:50;3.13;;;0.90;;
71963;SDS011;59834;52.124;5.422;2023-02-28T00:25:20;1.85;;;0.77;;
71963;SDS011;59834;52.124;5.422;2023-02-28T00:27:49;4.30;;;1.20;;
71963;SDS011;59834;52.124;5.422;2023-02-28T00:30:19;2.47;;;0.50;;
71963;SDS011;59834;52.124;5.422;2023-02-28T00:32:49;6.38;;;0.68;;
71963;SDS011;59834;52.124;5.422;2023-02-28T00:35:16;3.57;;;1.03;;
71963;SDS011;59834;52.124;5.422;2023-02-28T00:37:43;5.07;;;1.20;;
71963;SDS011;59834;52.124;5.422;2023-02-28T00:40:10;1.55;;;0.55;;
71963;SDS011;59834;52.124;5.422;2023-02-28T00:42:38;1.70;;;0.50;;
71963;SDS011;59834;52.124;5.422;2023-02-28T00:45:05;2.30;;;0.65;;
71963;SDS011;59834;52.124;5.422;2023-02-28T00:47:32;1.90;;;0.90;;
71963;SDS011;59834;52.124;5.422;2023-02-28T00:49:59;4.63;;;0.80;;
71963;SDS011;59834;52.124;5.422;2023-02-28T00:52:26;2.97;;;0.70;;
71963;SDS011;59834;52.124;5.422;2023-02-28T00:54:53;2.55;;;0.47;;
71963;SDS011;59834;52.124;5.422;2023-02-28T00:57:19;2.20;;;0.68;;
71963;SDS011;59834;52.124;5.422;2023-02-28T00:59:46;1.57;;;0.47;;
71963;SDS011;59834;52.124;5.422;2023-02-28T01:02:13;4.85;;;0.85;;
71963;SDS011;59834;52.124;5.422;2023-02-28T01:04:39;2.22;;;0.50;;
71963;SDS011;59834;52.124;5.422;2023-02-28T01:07:06;2.47;;;0.80;;
71963;SDS011;59834;52.124;5.422;2023-02-28T01:09:32;3.05;;;0.95;;
71963;SDS011;59834;52.124;5.422;2023-02-28T01:11:59;4.07;;;0.80;;
71963;SDS011;59834;52.124;5.422;2023-02-28T01:14:25;3.72;;;0.70;;
71963;SDS011;59834;52.124;5.422;2023-02-28T01:16:52;1.15;;;0.50;;
71963;SDS011;59834;52.124;5.422;2023-02-28T01:19:19;2.45;;;0.63;;
71963;SDS011;59834;52.124;5.422;2023-02-28T01:21:46;1.13;;;0.43;;
71963;SDS011;59834;52.124;5.422;2023-02-28T01:24:13;3.93;;;0.57;;
71963;SDS011;59834;52.124;5.422;2023-02-28T01:26:40;3.50;;;0.70;;
71963;SDS011;59834;52.124;5.422;2023-02-28T01:29:06;4.55;;;0.43;;
71963;SDS011;59834;52.124;5.422;2023-02-28T01:31:33;5.55;;;0.57;;
71963;SDS011;59834;52.124;5.422;2023-02-28T01:34:00;2.10;;;0.60;;
71963;SDS011;59834;52.124;5.422;2023-02-28T01:36:26;3.40;;;0.60;;
71963;SDS011;59834;52.124;5.422;2023-02-28T01:38:53;2.15;;;0.50;;
71963;SDS011;59834;52.124;5.422;2023-02-28T01:41:24;1.90;;;0.40;;
71963;SDS011;59834;52.124;5.422;2023-02-28T01:46:25;2.17;;;0.47;;
71963;SDS011;59834;52.124;5.422;2023-02-28T01:51:33;4.13;;;0.88;;
71963;SDS011;59834;52.124;5.422;2023-02-28T01:54:07;2.95;;;0.65;;
71963;SDS011;59834;52.124;5.422;2023-02-28T01:56:42;1.70;;;0.50;;
71963;SDS011;59834;52.124;5.422;2023-02-28T01:59:19;3.10;;;0.60;;
71963;SDS011;59834;52.124;5.422;2023-02-28T02:01:50;2.27;;;0.57;;
71963;SDS011;59834;52.124;5.422;2023-02-28T02:04:17;2.70;;;0.50;;
71963;SDS011;59834;52.124;5.422;2023-02-28T02:06:44;3.22;;;0.85;;
71963;SDS011;59834;52.124;5.422;2023-02-28T02:09:13;3.83;;;0.60;;
71963;SDS011;59834;52.124;5.422;2023-02-28T02:11:41;1.08;;;0.40;;
71963;SDS011;59834;52.124;5.422;2023-02-28T02:16:51;2.47;;;0.70;;
71963;SDS011;59834;52.124;5.422;2023-02-28T02:22:37;6.75;;;0.68;;
71963;SDS011;59834;52.124;5.422;2023-02-28T02:25:18;3.45;;;0.95;;
71963;SDS011;59834;52.124;5.422;2023-02-28T02:37:21;2.03;;;0.38;;
71963;SDS011;59834;52.124;5.422;2023-02-28T02:39:58;5.72;;;0.70;;
71963;SDS011;59834;52.124;5.422;2023-02-28T02:48:25;9.95;;;1.00;;
71963;SDS011;59834;52.124;5.422;2023-02-28T02:50:57;2.17;;;0.65;;
71963;SDS011;59834;52.124;5.422;2023-02-28T02:53:29;2.25;;;0.60;;
71963;SDS011;59834;52.124;5.422;2023-02-28T02:55:59;3.37;;;0.83;;
71963;SDS011;59834;52.124;5.422;2023-02-28T02:58:31;3.42;;;0.73;;
71963;SDS011;59834;52.124;5.422;2023-02-28T03:01:01;6.88;;;1.08;;
71963;SDS011;59834;52.124;5.422;2023-02-28T03:03:30;3.70;;;0.65;;
71963;SDS011;59834;52.124;5.422;2023-02-28T03:05:59;5.60;;;0.98;;
71963;SDS011;59834;52.124;5.422;2023-02-28T03:08:28;8.50;;;0.90;;
71963;SDS011;59834;52.124;5.422;2023-02-28T03:11:00;8.95;;;0.60;;
71963;SDS011;59834;52.124;5.422;2023-02-28T03:16:34;4.22;;;0.70;;
71963;SDS011;59834;52.124;5.422;2023-02-28T03:30:27;3.42;;;0.93;;
71963;SDS011;59834;52.124;5.422;2023-02-28T03:33:08;4.97;;;0.85;;
71963;SDS011;59834;52.124;5.422;2023-02-28T03:35:45;5.07;;;0.77;;
71963;SDS011;59834;52.124;5.422;2023-02-28T03:38:20;3.80;;;0.80;;
71963;SDS011;59834;52.124;5.422;2023-02-28T03:40:58;2.60;;;0.52;;
71963;SDS011;59834;52.124;5.422;2023-02-28T03:43:33;2.55;;;0.90;;
71963;SDS011;59834;52.124;5.422;2023-02-28T03:46:05;6.68;;;1.08;;
71963;SDS011;59834;52.124;5.422;2023-02-28T03:48:48;2.80;;;0.87;;
71963;SDS011;59834;52.124;5.422;2023-02-28T03:51:18;2.75;;;0.70;;
71963;SDS011;59834;52.124;5.422;2023-02-28T03:53:50;2.20;;;0.85;;
71963;SDS011;59834;52.124;5.422;2023-02-28T04:04:04;2.53;;;0.60;;
71963;SDS011;59834;52.124;5.422;2023-02-28T04:06:32;3.70;;;0.77;;
71963;SDS011;59834;52.124;5.422;2023-02-28T04:09:00;1.85;;;0.52;;
71963;SDS011;59834;52.124;5.422;2023-02-28T04:11:39;3.33;;;0.82;;
71963;SDS011;59834;52.124;5.422;2023-02-28T04:14:08;3.23;;;0.60;;
71963;SDS011;59834;52.124;5.422;2023-02-28T04:16:37;1.92;;;0.70;;
71963;SDS011;59834;52.124;5.422;2023-02-28T04:19:06;1.70;;;0.50;;
71963;SDS011;59834;52.124;5.422;2023-02-28T04:21:35;2.15;;;0.60;;
71963;SDS011;59834;52.124;5.422;2023-02-28T04:24:05;3.47;;;0.60;;
71963;SDS011;59834;52.124;5.422;2023-02-28T04:26:33;2.47;;;0.53;;
71963;SDS011;59834;52.124;5.422;2023-02-28T04:29:03;3.65;;;0.60;;
71963;SDS011;59834;52.124;5.422;2023-02-28T04:31:31;2.00;;;0.75;;
71963;SDS011;59834;52.124;5.422;2023-02-28T04:33:58;1.88;;;0.45;;
71963;SDS011;59834;52.124;5.422;2023-02-28T04:36:27;1.40;;;0.30;;
71963;SDS011;59834;52.124;5.422;2023-02-28T04:38:56;1.37;;;0.47;;
71963;SDS011;59834;52.124;5.422;2023-02-28T04:41:25;2.22;;;0.70;;
71963;SDS011;59834;52.124;5.422;2023-02-28T04:44:00;5.22;;;0.70;;
71963;SDS011;59834;52.124;5.422;2023-02-28T04:46:30;3.45;;;0.50;;
71963;SDS011;59834;52.124;5.422;2023-02-28T04:48:57;1.85;;;0.65;;
71963;SDS011;59834;52.124;5.422;2023-02-28T04:51:26;2.97;;;0.50;;
71963;SDS011;59834;52.124;5.422;2023-02-28T04:53:53;4.65;;;0.43;;
71963;SDS011;59834;52.124;5.422;2023-02-28T04:56:23;1.77;;;0.60;;
71963;SDS011;59834;52.124;5.422;2023-02-28T04:58:53;2.42;;;0.45;;
71963;SDS011;59834;52.124;5.422;2023-02-28T05:01:29;2.10;;;0.40;;
71963;SDS011;59834;52.124;5.422;2023-02-28T05:04:06;2.10;;;0.40;;
71963;SDS011;59834;52.124;5.422;2023-02-28T05:06:32;2.00;;;0.50;;
71963;SDS011;59834;52.124;5.422;2023-02-28T05:08:59;2.20;;;0.85;;
71963;SDS011;59834;52.124;5.422;2023-02-28T05:11:29;2.13;;;0.70;;
71963;SDS011;59834;52.124;5.422;2023-02-28T05:14:09;1.42;;;0.50;;
71963;SDS011;59834;52.124;5.422;2023-02-28T05:16:38;3.10;;;0.67;;
71963;SDS011;59834;52.124;5.422;2023-02-28T05:19:05;2.05;;;0.77;;
71963;SDS011;59834;52.124;5.422;2023-02-28T05:24:15;3.58;;;0.50;;
71963;SDS011;59834;52.124;5.422;2023-02-28T05:26:42;1.60;;;0.60;;
71963;SDS011;59834;52.124;5.422;2023-02-28T05:29:09;1.27;;;0.33;;
71963;SDS011;59834;52.124;5.422;2023-02-28T05:31:36;2.85;;;0.52;;
71963;SDS011;59834;52.124;5.422;2023-02-28T05:34:03;3.10;;;0.50;;
71963;SDS011;59834;52.124;5.422;2023-02-28T05:36:33;1.83;;;0.57;;
71963;SDS011;59834;52.124;5.422;2023-02-28T05:39:04;4.63;;;0.65;;
71963;SDS011;59834;52.124;5.422;2023-02-28T05:41:31;1.73;;;0.60;;
71963;SDS011;59834;52.124;5.422;2023-02-28T05:44:00;2.15;;;0.50;;
71963;SDS011;59834;52.124;5.422;2023-02-28T05:46:29;4.78;;;1.17;;
71963;SDS011;59834;52.124;5.422;2023-02-28T05:48:58;4.57;;;0.80;;
71963;SDS011;59834;52.124;5.422;2023-02-28T05:51:28;3.20;;;0.70;;
71963;SDS011;59834;52.124;5.422;2023-02-28T05:53:59;1.73;;;0.70;;
71963;SDS011;59834;52.124;5.422;2023-02-28T05:56:28;4.70;;;0.50;;
71963;SDS011;59834;52.124;5.422;2023-02-28T05:58:56;1.40;;;0.47;;
71963;SDS011;59834;52.124;5.422;2023-02-28T06:01:42;5.00;;;0.50;;
71963;SDS011;59834;52.124;5.422;2023-02-28T06:04:16;2.83;;;0.70;;
71963;SDS011;59834;52.124;5.422;2023-02-28T06:06:57;6.17;;;0.87;;
71963;SDS011;59834;52.124;5.422;2023-02-28T06:09:33;1.83;;;0.60;;
71963;SDS011;59834;52.124;5.422;2023-02-28T06:12:09;8.15;;;0.90;;
71963;SDS011;59834;52.124;5.422;2023-02-28T06:14:36;7.07;;;0.82;;
71963;SDS011;59834;52.124;5.422;2023-02-28T06:17:04;2.15;;;0.95;;
71963;SDS011;59834;52.124;5.422;2023-02-28T06:19:32;4.87;;;0.70;;
71963;SDS011;59834;52.124;5.422;2023-02-28T06:22:01;2.35;;;0.80;;
71963;SDS011;59834;52.124;5.422;2023-02-28T06:24:33;4.35;;;0.75;;
71963;SDS011;59834;52.124;5.422;2023-02-28T06:27:05;3.47;;;0.73;;
71963;SDS011;59834;52.124;5.422;2023-02-28T06:33:43;1.50;;;0.57;;
71963;SDS011;59834;52.124;5.422;2023-02-28T06:36:14;2.72;;;0.70;;
71963;SDS011;59834;52.124;5.422;2023-02-28T06:38:47;2.53;;;0.65;;
71963;SDS011;59834;52.124;5.422;2023-02-28T06:41:19;1.75;;;1.02;;
71963;SDS011;59834;52.124;5.422;2023-02-28T06:47:52;3.23;;;1.00;;
71963;SDS011;59834;52.124;5.422;2023-02-28T06:50:19;2.08;;;0.65;;
71963;SDS011;59834;52.124;5.422;2023-02-28T06:52:49;2.47;;;0.80;;
71963;SDS011;59834;52.124;5.422;2023-02-28T06:55:20;1.75;;;0.80;;
71963;SDS011;59834;52.124;5.422;2023-02-28T06:57:47;2.60;;;0.80;;
71963;SDS011;59834;52.124;5.422;2023-02-28T07:00:15;5.67;;;1.03;;
71963;SDS011;59834;52.124;5.422;2023-02-28T07:02:42;1.60;;;0.57;;
71963;SDS011;59834;52.124;5.422;2023-02-28T07:05:09;3.95;;;1.08;;
71963;SDS011;59834;52.124;5.422;2023-02-28T07:07:38;2.92;;;0.90;;
71963;SDS011;59834;52.124;5.422;2023-02-28T07:10:11;3.75;;;1.08;;
71963;SDS011;59834;52.124;5.422;2023-02-28T07:12:45;2.30;;;0.80;;
71963;SDS011;59834;52.124;5.422;2023-02-28T07:15:18;2.97;;;0.98;;
71963;SDS011;59834;52.124;5.422;2023-02-28T07:17:49;5.57;;;1.13;;
71963;SDS011;59834;52.124;5.422;2023-02-28T07:20:17;4.43;;;1.20;;
71963;SDS011;59834;52.124;5.422;2023-02-28T07:22:47;6.05;;;1.13;;
71963;SDS011;59834;52.124;5.422;2023-02-28T07:25:27;5.20;;;1.30;;
71963;SDS011;59834;52.124;5.422;2023-02-28T07:28:01;7.82;;;1.00;;
71963;SDS011;59834;52.124;5.422;2023-02-28T07:30:40;3.10;;;1.20;;
71963;SDS011;59834;52.124;5.422;2023-02-28T07:33:11;5.57;;;1.08;;
71963;SDS011;59834;52.124;5.422;2023-02-28T07:35:45;3.85;;;0.98;;
71963;SDS011;59834;52.124;5.422;2023-02-28T07:38:20;2.43;;;1.00;;
71963;SDS011;59834;52.124;5.422;2023-02-28T07:40:55;3.83;;;1.40;;
71963;SDS011;59834;52.124;5.422;2023-02-28T07:43:28;2.40;;;1.15;;
71963;SDS011;59834;52.124;5.422;2023-02-28T07:46:10;1.92;;;0.57;;
71963;SDS011;59834;52.124;5.422;2023-02-28T07:51:38;5.17;;;0.70;;
71963;SDS011;59834;52.124;5.422;2023-02-28T07:54:10;2.03;;;0.63;;
71963;SDS011;59834;52.124;5.422;2023-02-28T07:56:40;2.33;;;0.65;;
71963;SDS011;59834;52.124;5.422;2023-02-28T07:59:09;2.72;;;0.80;;
71963;SDS011;59834;52.124;5.422;2023-02-28T08:01:43;2.33;;;0.63;;
71963;SDS011;59834;52.124;5.422;2023-02-28T08:04:14;1.57;;;0.73;;
71963;SDS011;59834;52.124;5.422;2023-02-28T08:06:44;1.98;;;0.60;;
71963;SDS011;59834;52.124;5.422;2023-02-28T08:09:14;2.88;;;0.88;;
71963;SDS011;59834;52.124;5.422;2023-02-28T08:11:46;2.70;;;0.98;;
71963;SDS011;59834;52.124;5.422;2023-02-28T08:14:15;3.15;;;0.82;;
71963;SDS011;59834;52.124;5.422;2023-02-28T08:16:47;2.40;;;0.80;;
71963;SDS011;59834;52.124;5.422;2023-02-28T08:42:41;3.30;;;0.85;;
71963;SDS011;59834;52.124;5.422;2023-02-28T08:49:21;3.63;;;1.20;;
71963;SDS011;59834;52.124;5.422;2023-02-28T08:51:47;4.73;;;0.80;;
71963;SDS011;59834;52.124;5.422;2023-02-28T08:54:14;1.75;;;0.80;;
71963;SDS011;59834;52.124;5.422;2023-02-28T08:56:45;2.33;;;0.60;;
71963;SDS011;59834;52.124;5.422;2023-02-28T08:59:15;3.92;;;0.80;;
71963;SDS011;59834;52.124;5.422;2023-02-28T09:01:42;3.83;;;0.70;;
71963;SDS011;59834;52.124;5.422;2023-02-28T09:04:09;4.10;;;0.60;;
71963;SDS011;59834;52.124;5.422;2023-02-28T09:06:45;1.80;;;0.57;;
71963;SDS011;59834;52.124;5.422;2023-02-28T09:13:18;1.80;;;0.40;;
71963;SDS011;59834;52.124;5.422;2023-02-28T09:18:48;1.30;;;0.30;;
71963;SDS011;59834;52.124;5.422;2023-02-28T09:21:16;1.10;;;0.30;;
71963;SDS011;59834;52.124;5.422;2023-02-28T09:23:49;1.50;;;0.20;;
71963;SDS011;59834;52.124;5.422;2023-02-28T09:26:20;0.95;;;0.20;;
71963;SDS011;59834;52.124;5.422;2023-02-28T09:29:08;0.90;;;0.20;;
71963;SDS011;59834;52.124;5.422;2023-02-28T09:31:38;1.33;;;0.30;;
71963;SDS011;59834;52.124;5.422;2023-02-28T09:34:07;3.67;;;0.20;;
71963;SDS011;59834;52.124;5.422;2023-02-28T09:36:40;1.00;;;0.20;;
71963;SDS011;59834;52.124;5.422;2023-02-28T09:39:12;0.60;;;0.13;;
71963;SDS011;59834;52.124;5.422;2023-02-28T09:41:44;1.38;;;0.10;;
71963;SDS011;59834;52.124;5.422;2023-02-28T09:44:33;1.23;;;0.10;;
71963;SDS011;59834;52.124;5.422;2023-02-28T09:47:11;0.60;;;0.10;;
71963;SDS011;59834;52.124;5.422;2023-02-28T09:49:45;1.63;;;0.30;;
71963;SDS011;59834;52.124;5.422;2023-02-28T09:52:21;1.45;;;0.20;;
71963;SDS011;59834;52.124;5.422;2023-02-28T09:58:20;2.50;;;0.20;;
71963;SDS011;59834;52.124;5.422;2023-02-28T10:01:02;1.30;;;0.25;;
71963;SDS011;59834;52.124;5.422;2023-02-28T10:03:43;4.15;;;0.30;;
71963;SDS011;59834;52.124;5.422;2023-02-28T10:06:26;0.75;;;0.20;;
71963;SDS011;59834;52.124;5.422;2023-02-28T10:09:03;0.80;;;0.20;;
71963;SDS011;59834;52.124;5.422;2023-02-28T10:11:35;0.63;;;0.20;;
71963;SDS011;59834;52.124;5.422;2023-02-28T10:14:09;4.75;;;0.30;;
71963;SDS011;59834;52.124;5.422;2023-02-28T10:16:42;1.48;;;0.30;;
71963;SDS011;59834;52.124;5.422;2023-02-28T10:21:57;1.10;;;0.30;;
71963;SDS011;59834;52.124;5.422;2023-02-28T10:27:22;0.50;;;0.10;;
71963;SDS011;59834;52.124;5.422;2023-02-28T10:29:52;0.52;;;0.10;;
71963;SDS011;59834;52.124;5.422;2023-02-28T10:32:21;1.67;;;0.20;;
71963;SDS011;59834;52.124;5.422;2023-02-28T10:34:51;3.65;;;0.20;;
71963;SDS011;59834;52.124;5.422;2023-02-28T10:37:23;1.83;;;0.13;;
71963;SDS011;59834;52.124;5.422;2023-02-28T10:39:49;0.90;;;0.20;;
71963;SDS011;59834;52.124;5.422;2023-02-28T10:42:24;2.75;;;0.30;;
71963;SDS011;59834;52.124;5.422;2023-02-28T10:45:14;1.15;;;0.20;;
71963;SDS011;59834;52.124;5.422;2023-02-28T10:53:13;1.08;;;0.20;;
71963;SDS011;59834;52.124;5.422;2023-02-28T10:58:28;0.80;;;0.20;;
71963;SDS011;59834;52.124;5.422;2023-02-28T11:00:58;0.77;;;0.20;;
71963;SDS011;59834;52.124;5.422;2023-02-28T11:03:29;0.83;;;0.20;;
71963;SDS011;59834;52.124;5.422;2023-02-28T11:05:58;1.63;;;0.40;;
71963;SDS011;59834;52.124;5.422;2023-02-28T11:08:31;3.80;;;0.30;;
71963;SDS011;59834;52.124;5.422;2023-02-28T11:10:58;1.40;;;0.22;;
71963;SDS011;59834;52.124;5.422;2023-02-28T11:13:35;1.50;;;0.20;;
71963;SDS011;59834;52.124;5.422;2023-02-28T11:16:06;0.67;;;0.10;;
71963;SDS011;59834;52.124;5.422;2023-02-28T11:18:43;0.65;;;0.17;;
71963;SDS011;59834;52.124;5.422;2023-02-28T11:21:15;1.35;;;0.20;;
71963;SDS011;59834;52.124;5.422;2023-02-28T11:23:48;0.93;;;0.20;;
71963;SDS011;59834;52.124;5.422;2023-02-28T11:26:34;2.63;;;0.30;;
71963;SDS011;59834;52.124;5.422;2023-02-28T11:29:16;0.67;;;0.10;;
71963;SDS011;59834;52.124;5.422;2023-02-28T11:34:35;0.85;;;0.20;;
71963;SDS011;59834;52.124;5.422;2023-02-28T11:37:02;1.40;;;0.63;;
71963;SDS011;59834;52.124;5.422;2023-02-28T11:39:32;1.40;;;0.20;;
71963;SDS011;59834;52.124;5.422;2023-02-28T11:47:48;3.50;;;0.20;;
71963;SDS011;59834;52.124;5.422;2023-02-28T11:58:54;1.75;;;0.20;;
71963;SDS011;59834;52.124;5.422;2023-02-28T12:01:38;0.65;;;0.20;;
71963;SDS011;59834;52.124;5.422;2023-02-28T12:09:46;0.87;;;0.20;;
71963;SDS011;59834;52.124;5.422;2023-02-28T12:12:38;0.82;;;0.22;;
71963;SDS011;59834;52.124;5.422;2023-02-28T12:18:26;0.82;;;0.20;;
71963;SDS011;59834;52.124;5.422;2023-02-28T12:26:46;1.98;;;0.20;;
71963;SDS011;59834;52.124;5.422;2023-02-28T12:29:19;1.65;;;0.30;;
71963;SDS011;59834;52.124;5.422;2023-02-28T12:34:41;4.30;;;0.38;;
71963;SDS011;59834;52.124;5.422;2023-02-28T12:37:14;1.23;;;0.20;;
71963;SDS011;59834;52.124;5.422;2023-02-28T12:39:47;1.13;;;0.20;;
71963;SDS011;59834;52.124;5.422;2023-02-28T12:42:22;0.88;;;0.30;;
71963;SDS011;59834;52.124;5.422;2023-02-28T12:47:39;1.80;;;0.20;;
71963;SDS011;59834;52.124;5.422;2023-02-28T12:50:09;2.40;;;0.23;;
71963;SDS011;59834;52.124;5.422;2023-02-28T12:52:49;1.33;;;0.20;;
71963;SDS011;59834;52.124;5.422;2023-02-28T12:58:39;1.75;;;0.20;;
71963;SDS011;59834;52.124;5.422;2023-02-28T13:01:11;1.02;;;0.20;;
71963;SDS011;59834;52.124;5.422;2023-02-28T13:09:53;0.98;;;0.30;;
71963;SDS011;59834;52.124;5.422;2023-02-28T13:12:21;2.25;;;0.28;;
71963;SDS011;59834;52.124;5.422;2023-02-28T13:14:49;0.95;;;0.32;;
71963;SDS011;59834;52.124;5.422;2023-02-28T13:17:20;1.53;;;0.20;;
71963;SDS011;59834;52.124;5.422;2023-02-28T13:22:36;1.38;;;0.30;;
71963;SDS011;59834;52.124;5.422;2023-02-28T13:27:51;0.85;;;0.20;;
71963;SDS011;59834;52.124;5.422;2023-02-28T13:38:44;0.90;;;0.20;;
71963;SDS011;59834;52.124;5.422;2023-02-28T13:44:09;2.33;;;0.30;;
71963;SDS011;59834;52.124;5.422;2023-02-28T13:51:48;0.80;;;0.20;;
71963;SDS011;59834;52.124;5.422;2023-02-28T14:05:22;1.00;;;0.35;;
71963;SDS011;59834;52.124;5.422;2023-02-28T14:07:59;1.15;;;0.28;;
71963;SDS011;59834;52.124;5.422;2023-02-28T14:10:51;3.40;;;0.30;;
71963;SDS011;59834;52.124;5.422;2023-02-28T14:16:14;3.05;;;0.45;;
71963;SDS011;59834;52.124;5.422;2023-02-28T14:18:49;1.50;;;0.40;;
71963;SDS011;59834;52.124;5.422;2023-02-28T14:21:25;1.77;;;0.30;;
71963;SDS011;59834;52.124;5.422;2023-02-28T14:23:59;1.57;;;0.30;;
71963;SDS011;59834;52.124;5.422;2023-02-28T14:32:34;1.73;;;0.30;;
71963;SDS011;59834;52.124;5.422;2023-02-28T14:37:52;0.73;;;0.30;;
71963;SDS011;59834;52.124;5.422;2023-02-28T14:40:21;1.42;;;0.20;;
71963;SDS011;59834;52.124;5.422;2023-02-28T14:42:54;1.02;;;0.30;;
71963;SDS011;59834;52.124;5.422;2023-02-28T14:45:27;1.85;;;0.20;;
71963;SDS011;59834;52.124;5.422;2023-02-28T14:47:59;4.65;;;0.30;;
71963;SDS011;59834;52.124;5.422;2023-02-28T14:50:30;1.23;;;0.30;;
71963;SDS011;59834;52.124;5.422;2023-02-28T14:52:58;1.45;;;0.30;;
71963;SDS011;59834;52.124;5.422;2023-02-28T14:55:30;1.65;;;0.50;;
71963;SDS011;59834;52.124;5.422;2023-02-28T14:57:59;3.88;;;0.25;;
71963;SDS011;59834;52.124;5.422;2023-02-28T15:00:30;2.50;;;0.40;;
71963;SDS011;59834;52.124;5.422;2023-02-28T15:03:00;1.77;;;0.30;;
71963;SDS011;59834;52.124;5.422;2023-02-28T15:05:47;1.25;;;0.20;;
71963;SDS011;59834;52.124;5.422;2023-02-28T15:08:17;1.38;;;0.32;;
71963;SDS011;59834;52.124;5.422;2023-02-28T15:10:56;2.08;;;0.30;;
71963;SDS011;59834;52.124;5.422;2023-02-28T15:13:31;1.60;;;0.30;;
71963;SDS011;59834;52.124;5.422;2023-02-28T15:16:18;2.90;;;0.37;;
71963;SDS011;59834;52.124;5.422;2023-02-28T15:24:00;1.25;;;0.25;;
71963;SDS011;59834;52.124;5.422;2023-02-28T15:26:30;2.15;;;0.35;;
71963;SDS011;59834;52.124;5.422;2023-02-28T15:29:00;1.30;;;0.40;;
71963;SDS011;59834;52.124;5.422;2023-02-28T15:31:35;2.50;;;0.43;;
71963;SDS011;59834;52.124;5.422;2023-02-28T15:34:26;2.40;;;0.30;;
71963;SDS011;59834;52.124;5.422;2023-02-28T15:41:21;1.17;;;0.50;;
71963;SDS011;59834;52.124;5.422;2023-02-28T15:57:26;1.23;;;0.30;;
71963;SDS011;59834;52.124;5.422;2023-02-28T16:00:16;2.50;;;0.20;;
71963;SDS011;59834;52.124;5.422;2023-02-28T16:03:25;1.45;;;0.20;;
71963;SDS011;59834;52.124;5.422;2023-02-28T16:09:21;1.85;;;0.40;;
71963;SDS011;59834;52.124;5.422;2023-02-28T16:11:53;1.80;;;0.22;;
71963;SDS011;59834;52.124;5.422;2023-02-28T16:14:36;1.07;;;0.20;;
71963;SDS011;59834;52.124;5.422;2023-02-28T16:17:09;1.40;;;0.50;;
71963;SDS011;59834;52.124;5.422;2023-02-28T16:19:51;0.93;;;0.20;;
71963;SDS011;59834;52.124;5.422;2023-02-28T16:22:21;1.33;;;0.47;;
71963;SDS011;59834;52.124;5.422;2023-02-28T16:24:48;0.88;;;0.35;;
71963;SDS011;59834;52.124;5.422;2023-02-28T16:27:31;1.27;;;0.20;;
71963;SDS011;59834;52.124;5.422;2023-02-28T16:30:04;7.47;;;0.57;;
71963;SDS011;59834;52.124;5.422;2023-02-28T16:32:40;1.20;;;0.20;;
71963;SDS011;59834;52.124;5.422;2023-02-28T16:35:11;1.67;;;0.52;;
71963;SDS011;59834;52.124;5.422;2023-02-28T16:37:41;1.65;;;0.30;;
71963;SDS011;59834;52.124;5.422;2023-02-28T16:40:15;1.20;;;0.20;;
71963;SDS011;59834;52.124;5.422;2023-02-28T16:42:45;1.45;;;0.38;;
71963;SDS011;59834;52.124;5.422;2023-02-28T16:45:20;0.80;;;0.20;;
71963;SDS011;59834;52.124;5.422;2023-02-28T16:48:14;1.60;;;0.38;;
71963;SDS011;59834;52.124;5.422;2023-02-28T17:26:58;2.90;;;0.80;;
71963;SDS011;59834;52.124;5.422;2023-02-28T17:29:47;1.53;;;0.37;;
71963;SDS011;59834;52.124;5.422;2023-02-28T17:35:33;1.95;;;0.50;;
71963;SDS011;59834;52.124;5.422;2023-02-28T18:19:59;3.27;;;1.40;;
71963;SDS011;59834;52.124;5.422;2023-02-28T18:22:49;2.72;;;1.33;;
71963;SDS011;59834;52.124;5.422;2023-02-28T18:33:22;4.30;;;0.90;;
71963;SDS011;59834;52.124;5.422;2023-02-28T18:42:43;2.42;;;1.20;;
71963;SDS011;59834;52.124;5.422;2023-02-28T18:45:10;2.67;;;1.27;;
71963;SDS011;59834;52.124;5.422;2023-02-28T18:47:36;3.15;;;1.65;;
71963;SDS011;59834;52.124;5.422;2023-02-28T18:52:57;3.53;;;1.58;;
71963;SDS011;59834;52.124;5.422;2023-02-28T18:58:22;4.85;;;1.13;;
71963;SDS011;59834;52.124;5.422;2023-02-28T19:00:59;5.50;;;1.42;;
71963;SDS011;59834;52.124;5.422;2023-02-28T19:07:28;2.80;;;1.38;;
71963;SDS011;59834;52.124;5.422;2023-02-28T19:09:54;2.17;;;1.23;;
71963;SDS011;59834;52.124;5.422;2023-02-28T19:12:21;6.55;;;1.00;;
71963;SDS011;59834;52.124;5.422;2023-02-28T19:14:47;4.00;;;1.25;;
71963;SDS011;59834;52.124;5.422;2023-02-28T19:17:14;2.90;;;1.33;;
71963;SDS011;59834;52.124;5.422;2023-02-28T19:19:41;3.95;;;1.40;;
71963;SDS011;59834;52.124;5.422;2023-02-28T19:22:07;4.82;;;1.67;;
71963;SDS011;59834;52.124;5.422;2023-02-28T19:24:34;3.25;;;1.45;;
71963;SDS011;59834;52.124;5.422;2023-02-28T19:27:00;3.17;;;1.50;;
71963;SDS011;59834;52.124;5.422;2023-02-28T19:29:27;4.23;;;1.67;;
71963;SDS011;59834;52.124;5.422;2023-02-28T19:31:54;7.20;;;2.22;;
71963;SDS011;59834;52.124;5.422;2023-02-28T19:34:20;3.67;;;1.80;;
71963;SDS011;59834;52.124;5.422;2023-02-28T19:36:47;3.95;;;1.88;;
71963;SDS011;59834;52.124;5.422;2023-02-28T19:39:14;4.18;;;2.60;;
71963;SDS011;59834;52.124;5.422;2023-02-28T19:41:40;4.53;;;2.47;;
71963;SDS011;59834;52.124;5.422;2023-02-28T19:44:07;4.25;;;2.40;;
71963;SDS011;59834;52.124;5.422;2023-02-28T19:46:33;7.30;;;2.33;;
71963;SDS011;59834;52.124;5.422;2023-02-28T19:49:00;6.00;;;2.95;;
71963;SDS011;59834;52.124;5.422;2023-02-28T19:51:26;6.18;;;2.80;;
71963;SDS011;59834;52.124;5.422;2023-02-28T19:53:53;6.63;;;3.50;;
71963;SDS011;59834;52.124;5.422;2023-02-28T19:56:20;6.43;;;3.20;;
71963;SDS011;59834;52.124;5.422;2023-02-28T19:58:47;4.95;;;3.10;;
71963;SDS011;59834;52.124;5.422;2023-02-28T20:01:14;7.77;;;3.53;;
71963;SDS011;59834;52.124;5.422;2023-02-28T20:03:47;6.18;;;4.18;;
71963;SDS011;59834;52.124;5.422;2023-02-28T20:06:15;7.38;;;3.72;;
71963;SDS011;59834;52.124;5.422;2023-02-28T20:08:42;6.68;;;3.92;;
71963;SDS011;59834;52.124;5.422;2023-02-28T20:11:10;6.32;;;3.67;;
71963;SDS011;59834;52.124;5.422;2023-02-28T20:13:38;5.93;;;3.33;;
71963;SDS011;59834;52.124;5.422;2023-02-28T20:16:07;5.47;;;3.03;;
71963;SDS011;59834;52.124;5.422;2023-02-28T20:18:36;9.23;;;3.03;;
71963;SDS011;59834;52.124;5.422;2023-02-28T20:45:58;6.80;;;3.55;;
71963;SDS011;59834;52.124;5.422;2023-02-28T20:51:28;8.48;;;3.70;;
71963;SDS011;59834;52.124;5.422;2023-02-28T20:53:55;7.72;;;3.72;;
71963;SDS011;59834;52.124;5.422;2023-02-28T20:56:22;7.40;;;3.83;;
71963;SDS011;59834;52.124;5.422;2023-02-28T20:58:50;7.00;;;4.18;;
71963;SDS011;59834;52.124;5.422;2023-02-28T21:01:19;8.90;;;3.93;;
71963;SDS011;59834;52.124;5.422;2023-02-28T21:03:52;9.70;;;5.53;;
71963;SDS011;59834;52.124;5.422;2023-02-28T21:06:23;13.65;;;5.40;;
71963;SDS011;59834;52.124;5.422;2023-02-28T21:08:52;15.48;;;6.68;;
71963;SDS011;59834;52.124;5.422;2023-02-28T21:11:22;13.73;;;6.93;;
71963;SDS011;59834;52.124;5.422;2023-02-28T21:13:51;13.93;;;8.07;;
71963;SDS011;59834;52.124;5.422;2023-02-28T21:16:20;18.85;;;7.05;;
71963;SDS011;59834;52.124;5.422;2023-02-28T21:18:48;16.95;;;7.20;;